Time;durP1;ratioP1;P1;durP2;ratioP2;P2;SDS_P1;SDS_P2;PMS_P1;PMS_P2;Temp;Humidity;BMP_temperature;BMP_pressure;BME280_temperature;BME280_humidity;BME280_pressure;Samples;Min_cycle;Max_cycle;Signal;HPM_P1;HPM_P2
2022/10/02 00:01:54;;;;;;;5.90;3.90;;;;;;;10.95;76.88;97996.41;5075776;28;20484;-72
2022/10/02 00:04:32;;;;;;;6.53;4.38;;;;;;;10.96;76.31;97999.97;5077272;28;20519;-71
2022/10/02 00:07:05;;;;;;;6.38;4.57;;;;;;;10.97;76.82;98007.88;5079921;28;21618;-71
2022/10/02 00:09:43;;;;;;;7.97;5.15;;;;;;;10.99;76.35;98007.59;5064006;28;20117;-72
2022/10/02 00:12:13;;;;;;;5.72;3.90;;;;;;;11.01;77.13;98010.81;5082824;28;21107;-71
2022/10/02 00:14:41;;;;;;;7.90;6.30;;;;;;;11.06;76.61;98018.13;5080609;28;20089;-72
2022/10/02 00:17:15;;;;;;;7.75;3.90;;;;;;;11.09;76.60;98025.75;5082978;28;20113;-71
2022/10/02 00:19:41;;;;;;;6.15;3.75;;;;;;;11.14;76.92;98042.09;5082295;28;20028;-72
2022/10/02 00:22:23;;;;;;;4.68;3.60;;;;;;;11.17;76.93;98044.22;5063701;28;20059;-73
2022/10/02 00:25:05;;;;;;;7.53;3.70;;;;;;;11.23;76.61;98044.91;5079074;28;20027;-74
2022/10/02 00:28:25;;;;;;;5.32;3.50;;;;;;;11.24;76.98;98039.09;5086369;28;20647;-74
2022/10/02 00:31:01;;;;;;;5.95;4.00;;;;;;;11.26;76.62;98047.03;4961919;28;20134;-74
2022/10/02 00:33:42;;;;;;;5.82;4.10;;;;;;;11.26;76.40;98039.59;5050640;28;20586;-74
2022/10/02 00:36:21;;;;;;;5.47;3.83;;;;;;;11.26;77.01;98036.84;5087013;28;20040;-73
2022/10/02 00:39:09;;;;;;;6.28;4.35;;;;;;;11.26;77.02;98038.78;5082870;28;20024;-74
2022/10/02 00:41:53;;;;;;;4.80;4.00;;;;;;;11.27;76.91;98043.16;5085980;28;20064;-74
2022/10/02 00:44:40;;;;;;;6.72;3.70;;;;;;;11.29;76.46;98049.16;5086504;28;20052;-75
2022/10/02 00:47:33;;;;;;;5.53;3.60;;;;;;;11.29;77.27;98046.41;5086940;28;20039;-74
2022/10/02 00:50:26;;;;;;;6.13;3.72;;;;;;;11.27;77.20;98045.91;5084942;28;20466;-74
2022/10/02 00:52:57;;;;;;;5.03;3.60;;;;;;;11.28;76.87;98056.56;5083395;28;20040;-74
2022/10/02 00:55:48;;;;;;;6.43;3.60;;;;;;;11.31;76.56;98058.69;5067725;28;20058;-74
2022/10/02 00:58:29;;;;;;;4.15;2.85;;;;;;;11.33;76.67;98061.16;5086249;28;20077;-74
2022/10/02 01:01:04;;;;;;;5.68;3.83;;;;;;;11.33;77.03;98066.63;5083148;28;20028;-75
2022/10/02 01:03:40;;;;;;;5.68;3.40;;;;;;;11.35;77.30;98058.06;5081547;28;20024;-74
2022/10/02 01:06:07;;;;;;;13.02;7.53;;;;;;;11.35;77.14;98061.66;5086807;28;20126;-74
2022/10/02 01:08:35;;;;;;;6.47;4.35;;;;;;;11.36;76.84;98065.19;5086017;28;20028;-74
2022/10/02 01:11:02;;;;;;;5.82;4.30;;;;;;;11.35;77.29;98067.13;5084824;28;20051;-75
2022/10/02 01:13:29;;;;;;;4.70;3.40;;;;;;;11.34;77.34;98072.91;5086404;28;20035;-75
2022/10/02 01:15:59;;;;;;;3.67;2.95;;;;;;;11.33;76.85;98074.88;5086993;28;20035;-74
2022/10/02 01:18:25;;;;;;;4.22;2.95;;;;;;;11.34;76.79;98079.25;5084984;28;20383;-74
2022/10/02 01:20:55;;;;;;;3.78;3.00;;;;;;;11.36;77.45;98077.00;5080062;28;20161;-73
2022/10/02 01:23:40;;;;;;;4.57;2.97;;;;;;;11.36;76.91;98087.97;5085161;28;20024;-74
2022/10/02 01:26:07;;;;;;;5.38;3.42;;;;;;;11.37;77.36;98083.28;5084975;28;20040;-73
2022/10/02 01:28:33;;;;;;;3.88;2.80;;;;;;;11.37;77.15;98094.28;5084940;28;20116;-74
2022/10/02 01:31:06;;;;;;;4.72;3.38;;;;;;;11.38;76.78;98095.88;5079099;28;20043;-74
2022/10/02 01:33:32;;;;;;;5.22;3.00;;;;;;;11.39;77.09;98103.84;5079213;28;20028;-74
2022/10/02 01:35:58;;;;;;;3.75;2.80;;;;;;;11.41;77.33;98106.25;5079177;28;20107;-74
2022/10/02 01:38:24;;;;;;;4.03;2.78;;;;;;;11.45;77.89;98104.50;5079328;28;20095;-74
2022/10/02 01:40:49;;;;;;;4.15;2.55;;;;;;;11.43;77.45;98115.00;5077227;28;20063;-72
2022/10/02 01:43:24;;;;;;;2.97;2.38;;;;;;;11.42;77.03;98118.88;5079234;28;20053;-74
2022/10/02 01:46:26;;;;;;;3.05;2.17;;;;;;;11.42;77.11;98119.66;5078230;28;20044;-73
2022/10/02 01:48:58;;;;;;;3.92;3.05;;;;;;;11.45;77.78;98123.75;5076987;28;20032;-74
2022/10/02 01:51:33;;;;;;;4.45;2.78;;;;;;;11.45;77.33;98126.47;5079010;28;20150;-75
2022/10/02 01:54:12;;;;;;;4.13;2.75;;;;;;;11.44;77.63;98133.09;5085166;28;20039;-76
2022/10/02 01:56:45;;;;;;;4.50;2.38;;;;;;;11.43;77.02;98137.75;5080459;28;20040;-76
2022/10/02 01:59:16;;;;;;;2.95;2.20;;;;;;;11.41;77.14;98130.97;5081989;28;20434;-78
2022/10/02 02:02:18;;;;;;;2.35;2.00;;;;;;;11.41;77.60;98134.50;5083974;28;20032;-77
2022/10/02 02:04:46;;;;;;;4.05;2.08;;;;;;;11.42;77.19;98136.13;5077335;28;20067;-78
2022/10/02 02:07:47;;;;;;;2.60;2.05;;;;;;;11.40;77.65;98141.16;5080448;28;20426;-77
2022/10/02 02:10:25;;;;;;;4.00;2.20;;;;;;;11.42;77.31;98140.84;5033002;28;20043;-78
2022/10/02 02:12:58;;;;;;;2.53;1.88;;;;;;;11.43;77.52;98146.00;5078026;28;20044;-78
2022/10/02 02:15:46;;;;;;;2.15;1.60;;;;;;;11.42;77.52;98147.13;5065767;28;20053;-78
2022/10/02 02:18:23;;;;;;;2.35;1.80;;;;;;;11.41;77.38;98145.50;5084401;28;20790;-78
2022/10/02 02:20:52;;;;;;;1.88;1.75;;;;;;;11.41;77.44;98153.72;5079956;28;20044;-78
2022/10/02 02:23:28;;;;;;;2.08;1.80;;;;;;;11.44;77.44;98153.13;5083901;28;20028;-78
2022/10/02 02:26:01;;;;;;;2.58;1.50;;;;;;;11.43;77.67;98153.44;5082203;28;20115;-77
2022/10/02 02:28:30;;;;;;;2.58;1.60;;;;;;;11.44;77.13;98161.34;5083601;28;20038;-77
2022/10/02 02:31:00;;;;;;;2.03;1.83;;;;;;;11.46;77.27;98158.31;5083367;28;20476;-78
2022/10/02 02:33:29;;;;;;;3.20;1.60;;;;;;;11.49;77.20;98162.38;5084175;28;20036;-78
2022/10/02 02:35:59;;;;;;;4.97;1.50;;;;;;;11.47;76.85;98163.47;5084026;28;20024;-78
2022/10/02 02:38:30;;;;;;;2.13;1.50;;;;;;;11.47;77.06;98165.44;5083102;28;20024;-78
2022/10/02 02:41:01;;;;;;;2.00;1.80;;;;;;;11.48;76.80;98164.31;5081844;28;20036;-78
2022/10/02 02:43:31;;;;;;;3.28;1.60;;;;;;;11.49;76.75;98167.84;5079561;28;20039;-77
2022/10/02 02:46:02;;;;;;;2.40;1.60;;;;;;;11.48;76.68;98169.81;5082525;28;20056;-76
2022/10/02 02:48:36;;;;;;;2.20;1.30;;;;;;;11.50;76.60;98166.72;5084367;28;20470;-78
2022/10/02 02:51:17;;;;;;;2.50;1.55;;;;;;;11.51;77.07;98171.94;5061643;28;20028;-77
2022/10/02 02:54:06;;;;;;;2.60;1.60;;;;;;;11.52;76.88;98170.81;5079487;28;20060;-77
2022/10/02 02:56:33;;;;;;;2.33;1.40;;;;;;;11.54;76.80;98175.97;5065564;28;20044;-76
2022/10/02 02:59:04;;;;;;;1.77;1.30;;;;;;;11.55;76.03;98180.34;5076502;28;20035;-73
2022/10/02 03:01:29;;;;;;;2.47;1.67;;;;;;;11.56;76.27;98187.47;5075993;28;20143;-74
2022/10/02 03:03:55;;;;;;;1.77;1.30;;;;;;;11.57;76.31;98186.34;5078226;28;20069;-75
2022/10/02 03:06:36;;;;;;;1.95;1.40;;;;;;;11.56;76.53;98193.78;5078386;28;20039;-75
2022/10/02 03:09:04;;;;;;;1.80;1.35;;;;;;;11.56;76.14;98188.31;5062271;28;20027;-75
2022/10/02 03:11:43;;;;;;;1.45;1.25;;;;;;;11.57;75.69;98189.94;5077233;28;20055;-75
2022/10/02 03:14:11;;;;;;;1.67;1.40;;;;;;;11.58;76.03;98191.56;5077057;28;20042;-75
2022/10/02 03:16:55;;;;;;;3.05;1.45;;;;;;;11.58;75.97;98201.72;5078304;28;20539;-74
2022/10/02 03:19:41;;;;;;;2.80;1.48;;;;;;;11.61;75.67;98193.66;5059827;28;20081;-75
2022/10/02 03:22:14;;;;;;;2.00;1.60;;;;;;;11.60;75.91;98192.06;5060400;28;20135;-75
2022/10/02 03:24:45;;;;;;;2.35;1.55;;;;;;;11.58;75.32;98201.72;5070115;28;20036;-74
2022/10/02 03:27:21;;;;;;;2.28;1.23;;;;;;;11.56;75.55;98196.53;5075192;28;20039;-75
2022/10/02 03:30:02;;;;;;;2.35;1.30;;;;;;;11.54;75.19;98196.03;5077953;28;20016;-74
2022/10/02 03:32:29;;;;;;;1.50;1.20;;;;;;;11.55;75.94;98196.84;5082381;28;21122;-75
2022/10/02 03:34:56;;;;;;;3.05;1.40;;;;;;;11.54;75.32;98196.03;5065045;28;20028;-74
2022/10/02 03:37:24;;;;;;;5.95;2.28;;;;;;;11.55;75.42;98197.66;5080172;28;20035;-75
2022/10/02 03:39:51;;;;;;;3.65;1.90;;;;;;;11.57;75.78;98198.16;5081754;28;20540;-74
2022/10/02 03:42:22;;;;;;;2.50;1.55;;;;;;;11.60;75.23;98208.53;5082772;28;20154;-74
2022/10/02 03:44:47;;;;;;;2.42;1.60;;;;;;;11.61;75.36;98210.13;5078856;28;20044;-74
2022/10/02 03:47:13;;;;;;;4.25;1.50;;;;;;;11.62;75.08;98210.97;5083081;28;20030;-75
2022/10/02 03:49:39;;;;;;;2.42;1.50;;;;;;;11.65;74.89;98213.09;5082293;28;20553;-74
2022/10/02 03:52:05;;;;;;;1.92;1.30;;;;;;;11.70;74.93;98225.88;5082448;28;20039;-74
2022/10/02 03:54:34;;;;;;;2.40;1.13;;;;;;;11.70;75.05;98223.97;5064350;28;20041;-74
2022/10/02 03:57:04;;;;;;;2.08;1.20;;;;;;;11.72;75.01;98220.91;5081587;28;20027;-74
2022/10/02 03:59:46;;;;;;;1.60;1.17;;;;;;;11.70;74.65;98221.22;5063222;28;20090;-75
2022/10/02 04:02:28;;;;;;;2.15;1.30;;;;;;;11.71;74.28;98231.09;5083015;28;20036;-74
2022/10/02 04:05:36;;;;;;;1.80;1.40;;;;;;;11.72;74.37;98242.88;5080536;28;20032;-74
2022/10/02 04:08:15;;;;;;;2.88;1.52;;;;;;;11.74;74.53;98235.97;5082162;28;20115;-74
2022/10/02 04:10:51;;;;;;;3.10;1.90;;;;;;;11.74;74.38;98235.97;5081854;28;20414;-74
2022/10/02 04:13:46;;;;;;;4.60;2.20;;;;;;;11.74;73.81;98240.63;5081899;28;20165;-74
2022/10/02 04:16:26;;;;;;;3.20;2.50;;;;;;;11.75;73.79;98245.00;5074371;28;20036;-74
2022/10/02 04:19:04;;;;;;;2.65;2.00;;;;;;;11.74;74.02;98244.22;5074914;28;20024;-74
2022/10/02 04:21:33;;;;;;;1.95;1.33;;;;;;;11.73;73.81;98250.81;5082217;28;20109;-74
2022/10/02 04:24:08;;;;;;;1.42;1.20;;;;;;;11.74;73.69;98248.88;5082950;28;20036;-74
2022/10/02 04:26:38;;;;;;;3.38;1.20;;;;;;;11.76;73.66;98258.44;5082776;28;20729;-75
2022/10/02 04:29:24;;;;;;;2.97;1.20;;;;;;;11.77;73.86;98259.25;5082555;28;20024;-74
2022/10/02 04:32:19;;;;;;;2.60;1.40;;;;;;;11.79;73.91;98258.97;5082313;28;20028;-74
2022/10/02 04:34:44;;;;;;;1.77;1.13;;;;;;;11.83;73.28;98257.19;5064797;28;20032;-75
2022/10/02 04:37:12;;;;;;;1.95;1.13;;;;;;;11.84;73.62;98265.13;5082763;28;20053;-75
2022/10/02 04:40:06;;;;;;;2.38;1.30;;;;;;;11.85;73.61;98275.00;5081481;28;20028;-76
2022/10/02 04:42:44;;;;;;;2.13;1.30;;;;;;;11.87;73.50;98281.00;5056268;28;20036;-75
2022/10/02 04:45:18;;;;;;;8.88;1.70;;;;;;;11.88;73.12;98284.56;5075888;28;20048;-75
2022/10/02 04:48:28;;;;;;;3.33;1.50;;;;;;;11.86;73.66;98284.06;5079719;28;20515;-75
2022/10/02 04:51:12;;;;;;;;;;;;;;;11.86;73.59;98282.13;5072689;28;20165;-76
2022/10/02 04:53:52;;;;;;;3.95;1.65;;;;;;;11.84;73.02;98284.38;5079416;28;19926;-75
2022/10/02 04:56:27;;;;;;;3.97;1.55;;;;;;;11.84;73.58;98287.13;5074331;28;20243;-75
2022/10/02 04:59:20;;;;;;;3.30;1.65;;;;;;;11.84;73.32;98295.38;5080788;28;20498;-75
2022/10/02 05:02:09;;;;;;;1.98;1.63;;;;;;;11.80;73.20;98302.59;5083376;28;20024;-76
2022/10/02 05:05:02;;;;;;;2.03;1.50;;;;;;;11.78;73.05;98302.09;5083610;28;20028;-75
2022/10/02 05:07:54;;;;;;;3.35;1.60;;;;;;;11.79;73.00;98309.22;5083205;28;20113;-75
2022/10/02 05:10:42;;;;;;;3.08;1.80;;;;;;;11.80;73.11;98308.09;5074565;28;20112;-75
2022/10/02 05:13:22;;;;;;;2.22;1.27;;;;;;;11.79;72.80;98317.44;5079450;28;20341;-75
2022/10/02 05:16:12;;;;;;;3.17;1.48;;;;;;;11.80;72.92;98326.53;5079432;28;20160;-75
2022/10/02 05:18:40;;;;;;;;;;;;;;;11.77;72.56;98317.78;5085407;28;20027;-75
2022/10/02 05:21:43;;;;;;;3.60;1.77;;;;;;;11.74;72.74;98309.31;5082988;28;19927;-75
2022/10/02 05:24:51;;;;;;;5.78;1.58;;;;;;;11.72;72.55;98319.78;5079036;28;20035;-75
2022/10/02 05:27:49;;;;;;;2.83;1.70;;;;;;;11.69;72.65;98320.41;5053193;28;20040;-76
2022/10/02 05:30:18;;;;;;;4.53;1.75;;;;;;;11.72;72.63;98325.28;5080230;28;20040;-75
2022/10/02 05:33:06;;;;;;;4.60;1.92;;;;;;;11.68;72.62;98333.34;5083345;28;20413;-75
2022/10/02 05:35:50;;;;;;;4.15;1.77;;;;;;;11.66;72.41;98329.25;5083651;28;20024;-75
2022/10/02 05:38:47;;;;;;;2.70;1.42;;;;;;;11.61;72.82;98335.69;5082004;28;20447;-75
2022/10/02 05:41:22;;;;;;;3.13;1.77;;;;;;;11.57;73.11;98331.91;5068088;28;20024;-75
2022/10/02 05:43:54;;;;;;;3.75;1.45;;;;;;;11.52;72.69;98326.53;5075775;28;20491;-74
2022/10/02 05:46:25;;;;;;;2.90;1.75;;;;;;;11.51;72.81;98339.47;5077641;28;20052;-74
2022/10/02 05:48:59;;;;;;;4.03;2.00;;;;;;;11.53;73.13;98337.22;5082312;28;20557;-74
2022/10/02 05:51:46;;;;;;;3.40;1.63;;;;;;;11.55;72.78;98342.41;5082729;28;20024;-74
2022/10/02 05:54:26;;;;;;;4.95;1.73;;;;;;;11.56;72.88;98342.09;5081727;28;20024;-74
2022/10/02 05:57:03;;;;;;;3.72;1.80;;;;;;;11.59;72.85;98348.91;5068026;28;20021;-74
2022/10/02 05:59:57;;;;;;;3.58;1.63;;;;;;;11.62;73.05;98346.34;5080649;28;20028;-74
2022/10/02 06:02:27;;;;;;;3.30;1.60;;;;;;;11.69;73.20;98342.38;5078902;28;20121;-74
2022/10/02 06:05:47;;;;;;;3.53;1.52;;;;;;;11.73;72.47;98354.41;5083570;28;20483;-74
2022/10/02 06:08:16;;;;;;;4.40;1.85;;;;;;;11.77;72.88;98355.41;5055116;28;20067;-74
2022/10/02 06:10:47;;;;;;;4.35;2.47;;;;;;;11.78;72.89;98359.78;5053647;28;20028;-74
2022/10/02 06:13:29;;;;;;;8.30;7.50;;;;;;;11.83;73.09;98359.69;5054542;28;20392;-74
2022/10/02 06:16:07;;;;;;;11.45;9.23;;;;;;;11.87;72.86;98357.13;5076823;28;20029;-75
2022/10/02 06:18:37;;;;;;;8.80;8.00;;;;;;;11.94;72.66;98367.72;5082508;28;20036;-74
2022/10/02 06:21:10;;;;;;;4.53;2.28;;;;;;;11.96;72.65;98362.72;5063700;28;20037;-74
2022/10/02 06:23:43;;;;;;;3.05;1.60;;;;;;;12.01;72.50;98365.41;5082782;28;20024;-74
2022/10/02 06:26:23;;;;;;;2.00;1.48;;;;;;;12.06;72.52;98366.09;5070895;28;20127;-74
2022/10/02 06:28:56;;;;;;;2.60;1.50;;;;;;;12.12;72.66;98366.78;5072596;28;20032;-75
2022/10/02 06:31:36;;;;;;;4.53;1.50;;;;;;;12.14;72.49;98372.78;5075707;28;20036;-74
2022/10/02 06:34:01;;;;;;;5.13;1.73;;;;;;;12.14;72.17;98370.03;5082251;28;20484;-75
2022/10/02 06:36:42;;;;;;;3.75;1.77;;;;;;;12.15;72.53;98384.63;5081872;28;20067;-75
2022/10/02 06:39:35;;;;;;;4.57;2.00;;;;;;;12.14;72.16;98385.75;5064132;28;20174;-74
2022/10/02 06:42:12;;;;;;;3.15;1.77;;;;;;;12.13;72.06;98384.09;5076295;28;20741;-75
2022/10/02 06:44:53;;;;;;;4.50;2.00;;;;;;;12.14;72.37;98383.00;5062805;28;20610;-75
2022/10/02 06:47:49;;;;;;;4.35;2.00;;;;;;;12.15;72.11;98396.41;5076037;28;20480;-75
2022/10/02 06:50:35;;;;;;;3.92;1.90;;;;;;;12.18;72.18;98393.03;5082120;28;20023;-75
2022/10/02 06:53:14;;;;;;;4.05;2.03;;;;;;;12.21;72.13;98388.88;5062977;28;20078;-75
2022/10/02 06:55:47;;;;;;;4.00;2.38;;;;;;;12.22;71.83;98387.75;5064390;28;20185;-75
2022/10/02 06:58:28;;;;;;;3.80;1.85;;;;;;;12.21;71.91;98386.94;5054665;28;20474;-75
2022/10/02 07:01:20;;;;;;;3.20;1.55;;;;;;;12.22;71.96;98387.75;5075996;28;20086;-75
2022/10/02 07:04:06;;;;;;;5.03;2.20;;;;;;;12.27;72.20;98390.38;5078290;28;20020;-75
2022/10/02 07:06:49;;;;;;;3.40;2.00;;;;;;;12.32;71.99;98398.50;5081730;28;20028;-75
2022/10/02 07:09:35;;;;;;;2.90;2.10;;;;;;;12.36;72.04;98395.97;5081870;28;20028;-75
2022/10/02 07:12:15;;;;;;;2.47;1.80;;;;;;;12.42;71.65;98397.50;5075226;28;20035;-75
2022/10/02 07:15:34;;;;;;;4.43;1.77;;;;;;;12.49;71.88;98402.56;5073693;28;20059;-75
2022/10/02 07:18:21;;;;;;;3.63;1.95;;;;;;;12.59;71.66;98398.75;5031197;28;20079;-75
2022/10/02 07:21:05;;;;;;;7.72;2.15;;;;;;;12.66;71.64;98405.44;5077603;28;20024;-75
2022/10/02 07:23:48;;;;;;;4.00;1.80;;;;;;;12.74;71.42;98401.16;5081292;28;20028;-75
2022/10/02 07:26:19;;;;;;;4.63;1.52;;;;;;;12.80;70.96;98405.41;5081665;28;20461;-75
2022/10/02 07:28:52;;;;;;;2.50;1.67;;;;;;;12.84;70.84;98404.78;5071247;28;20028;-75
2022/10/02 07:31:44;;;;;;;4.13;1.30;;;;;;;12.86;70.53;98406.09;5072168;28;20099;-75
2022/10/02 07:34:38;;;;;;;2.67;1.17;;;;;;;12.91;70.63;98405.97;5077319;28;20062;-75
2022/10/02 07:37:28;;;;;;;3.47;1.77;;;;;;;12.99;70.57;98407.13;5081577;28;20036;-75
2022/10/02 07:40:02;;;;;;;5.43;3.30;;;;;;;13.04;70.01;98411.72;5078910;28;20118;-75
2022/10/02 07:43:09;;;;;;;5.53;3.03;;;;;;;13.08;70.02;98419.03;5079844;28;20064;-76
2022/10/02 07:45:40;;;;;;;7.97;6.38;;;;;;;13.12;70.18;98408.19;5041105;28;20059;-75
2022/10/02 07:48:18;;;;;;;4.43;2.30;;;;;;;13.16;69.58;98416.66;5072199;28;20392;-75
2022/10/02 07:50:58;;;;;;;3.00;1.50;;;;;;;13.16;69.47;98416.66;5077086;28;20020;-75
2022/10/02 07:53:45;;;;;;;3.53;1.40;;;;;;;13.18;69.28;98411.63;5058373;28;20020;-75
2022/10/02 07:56:18;;;;;;;4.90;2.08;;;;;;;13.22;69.28;98418.16;5080033;28;20094;-75
2022/10/02 07:58:44;;;;;;;4.10;2.08;;;;;;;13.27;69.41;98412.47;5080568;28;20139;-76
2022/10/02 08:01:32;;;;;;;3.97;1.50;;;;;;;13.31;69.31;98413.47;5061742;28;20031;-76
2022/10/02 08:04:05;;;;;;;4.57;2.00;;;;;;;13.42;68.53;98414.06;5077589;28;20059;-75
2022/10/02 08:06:33;;;;;;;2.65;1.20;;;;;;;13.51;68.69;98409.41;5071935;28;20118;-76
2022/10/02 08:09:17;;;;;;;4.20;1.40;;;;;;;13.55;68.53;98407.63;5074982;28;20054;-76
2022/10/02 08:11:58;;;;;;;3.75;1.27;;;;;;;13.57;68.33;98409.28;5059250;28;20814;-76
2022/10/02 08:14:40;;;;;;;3.17;1.50;;;;;;;13.56;66.99;98402.97;5078968;28;20020;-75
2022/10/02 08:17:33;;;;;;;3.45;1.20;;;;;;;13.56;67.78;98394.69;5061820;28;20078;-75
2022/10/02 08:20:09;;;;;;;2.75;1.45;;;;;;;13.62;66.97;98396.19;5072936;28;20036;-76
2022/10/02 08:22:39;;;;;;;2.63;0.95;;;;;;;13.72;67.02;98400.59;5070007;28;20032;-76
2022/10/02 08:25:25;;;;;;;2.97;0.95;;;;;;;13.84;67.33;98391.69;5074865;28;20089;-76
2022/10/02 08:28:00;;;;;;;2.97;1.20;;;;;;;13.99;67.29;98396.78;5079472;28;20115;-76
2022/10/02 08:30:25;;;;;;;5.78;1.52;;;;;;;14.12;67.34;98383.16;5083492;28;20046;-75
2022/10/02 08:32:52;;;;;;;4.78;1.98;;;;;;;14.20;66.88;98390.66;5084185;28;20024;-75
2022/10/02 08:35:19;;;;;;;3.42;1.33;;;;;;;14.29;65.38;98398.94;5074504;28;20543;-76
2022/10/02 08:37:55;;;;;;;5.00;1.50;;;;;;;14.31;66.28;98398.63;5071172;28;20067;-75
2022/10/02 08:41:03;;;;;;;5.32;1.50;;;;;;;14.35;65.15;98403.16;5078351;28;20512;-75
2022/10/02 08:43:55;;;;;;;4.28;1.52;;;;;;;14.34;64.82;98404.28;5039393;28;20033;-74
2022/10/02 08:46:57;;;;;;;5.70;1.83;;;;;;;14.30;65.02;98395.03;5080155;28;20048;-73
2022/10/02 08:49:44;;;;;;;6.18;1.45;;;;;;;14.32;64.57;98384.50;5082580;28;20535;-73
2022/10/02 08:52:35;;;;;;;3.25;1.40;;;;;;;14.36;65.35;98382.72;5067152;28;20263;-74
2022/10/02 08:55:19;;;;;;;2.13;1.10;;;;;;;14.42;64.32;98377.88;5077182;28;20190;-74
2022/10/02 08:58:01;;;;;;;2.50;1.02;;;;;;;14.47;65.04;98376.88;5078986;28;20074;-74
2022/10/02 09:00:36;;;;;;;4.38;1.30;;;;;;;14.56;64.64;98383.22;5080905;28;20103;-74
2022/10/02 09:03:44;;;;;;;3.80;1.10;;;;;;;14.56;63.31;98380.47;5082397;28;20028;-74
2022/10/02 09:06:31;;;;;;;6.80;1.58;;;;;;;14.57;62.32;98371.03;5077089;28;20053;-73
2022/10/02 09:09:49;;;;;;;3.70;1.50;;;;;;;14.58;63.13;98380.94;5073295;28;20047;-74
2022/10/02 09:12:47;;;;;;;2.28;1.08;;;;;;;14.61;62.27;98373.97;5003466;28;20120;-74
2022/10/02 09:15:22;;;;;;;2.15;1.27;;;;;;;14.62;62.74;98364.53;5044242;28;20056;-74
2022/10/02 09:18:15;;;;;;;2.47;1.00;;;;;;;14.58;62.92;98373.47;5065052;28;20024;-74
2022/10/02 09:21:14;;;;;;;4.07;1.42;;;;;;;14.62;62.27;98370.06;5082236;28;20876;-74
2022/10/02 09:23:49;;;;;;;4.93;1.40;;;;;;;14.61;61.50;98372.03;5070725;28;20117;-74
2022/10/02 09:26:32;;;;;;;2.20;0.90;;;;;;;14.61;62.03;98360.16;5072894;28;20051;-74
2022/10/02 09:29:48;;;;;;;3.83;1.02;;;;;;;14.66;61.88;98360.81;5061001;28;20558;-74
2022/10/02 09:33:09;;;;;;;4.65;1.20;;;;;;;14.67;61.36;98351.38;5066959;28;20042;-74
2022/10/02 09:35:43;;;;;;;;;;;;;;;14.71;58.85;98349.63;5064010;28;20031;-75
2022/10/02 09:38:14;;;;;;;2.67;0.80;;;;;;;14.73;59.93;98346.53;5068423;28;20407;-73
2022/10/02 09:41:17;;;;;;;4.32;1.10;;;;;;;14.77;59.29;98342.00;5075051;28;20584;-75
2022/10/02 09:44:02;;;;;;;3.50;1.00;;;;;;;14.83;60.21;98348.16;5076969;28;20044;-74
2022/10/02 09:47:11;;;;;;;2.83;1.00;;;;;;;14.92;59.40;98342.59;5081873;28;20047;-74
2022/10/02 09:50:04;;;;;;;5.90;1.10;;;;;;;15.02;59.77;98337.56;5069185;28;20249;-74
2022/10/02 09:52:48;;;;;;;3.97;0.90;;;;;;;15.10;59.58;98332.31;5079914;28;20031;-74
2022/10/02 09:55:35;;;;;;;1.60;0.80;;;;;;;15.22;60.78;98329.69;5074898;28;20036;-74
2022/10/02 09:58:04;;;;;;;1.70;0.77;;;;;;;15.39;59.77;98339.06;5077157;28;20129;-74
2022/10/02 10:01:16;;;;;;;2.13;0.63;;;;;;;15.50;58.42;98334.78;5080430;28;20463;-74
2022/10/02 10:04:07;;;;;;;3.47;0.80;;;;;;;15.56;57.71;98338.19;5010801;28;20545;-74
2022/10/02 10:07:13;;;;;;;3.58;0.93;;;;;;;15.65;58.94;98335.38;5083591;28;20043;-74
2022/10/02 10:09:45;;;;;;;3.88;0.90;;;;;;;15.78;58.07;98326.03;5065145;28;20105;-75
2022/10/02 10:12:26;;;;;;;3.20;1.20;;;;;;;15.94;57.43;98326.28;5084078;28;20036;-74
2022/10/02 10:15:04;;;;;;;2.80;1.50;;;;;;;16.03;56.75;98321.50;5065021;28;20035;-74
2022/10/02 10:18:08;;;;;;;2.97;1.10;;;;;;;16.02;56.48;98324.59;5081602;28;20121;-74
2022/10/02 10:21:06;;;;;;;2.67;0.95;;;;;;;16.01;55.35;98320.22;5080135;28;20027;-75
2022/10/02 10:23:53;;;;;;;5.63;2.08;;;;;;;15.99;55.82;98326.09;5080782;28;20043;-74
2022/10/02 10:26:54;;;;;;;3.03;1.20;;;;;;;15.98;56.03;98329.19;5079751;28;20087;-74
2022/10/02 10:29:23;;;;;;;3.50;0.90;;;;;;;15.97;55.01;98322.03;5074096;28;20457;-74
2022/10/02 10:32:37;;;;;;;2.03;0.80;;;;;;;15.92;55.12;98321.06;5048436;28;20024;-75
2022/10/02 10:35:23;;;;;;;1.80;0.82;;;;;;;15.89;55.96;98327.31;5003603;28;20045;-74
2022/10/02 10:38:32;;;;;;;3.05;0.80;;;;;;;15.85;55.75;98326.31;5004721;28;20053;-75
2022/10/02 10:41:15;;;;;;;2.95;0.90;;;;;;;15.81;55.29;98322.59;5071653;28;20055;-75
2022/10/02 10:43:43;;;;;;;4.00;1.02;;;;;;;15.76;55.74;98320.81;5080347;28;20138;-75
2022/10/02 10:46:14;;;;;;;2.35;0.90;;;;;;;15.72;55.17;98316.31;5067041;28;20074;-74
2022/10/02 10:49:05;;;;;;;1.73;0.70;;;;;;;15.70;55.43;98324.13;5055567;28;20032;-75
2022/10/02 10:51:37;;;;;;;3.67;0.90;;;;;;;15.70;54.83;98313.84;5077660;28;20082;-74
2022/10/02 10:54:15;;;;;;;4.10;1.15;;;;;;;15.74;55.08;98305.72;5081080;28;20039;-74
2022/10/02 10:56:46;;;;;;;4.22;2.22;;;;;;;15.74;56.06;98309.28;5063477;28;20067;-75
2022/10/02 10:59:30;;;;;;;2.58;1.00;;;;;;;15.79;55.42;98311.06;5079211;28;20028;-75
2022/10/02 11:02:14;;;;;;;3.70;1.17;;;;;;;15.76;56.31;98307.00;5066166;28;20489;-75
2022/10/02 11:05:16;;;;;;;2.50;1.13;;;;;;;15.76;56.02;98315.28;5076056;28;20465;-74
2022/10/02 11:08:09;;;;;;;2.10;1.02;;;;;;;15.76;55.55;98311.72;5079419;28;20671;-74
2022/10/02 11:10:45;;;;;;;2.45;1.13;;;;;;;15.77;55.76;98314.16;5049276;28;20034;-74
2022/10/02 11:13:42;;;;;;;2.72;0.90;;;;;;;15.82;56.24;98313.16;5063732;28;20501;-74
2022/10/02 11:16:12;;;;;;;1.83;0.88;;;;;;;15.91;55.44;98318.66;5067972;28;20547;-74
2022/10/02 11:18:55;;;;;;;3.58;1.45;;;;;;;15.93;55.75;98321.91;5074346;28;20078;-74
2022/10/02 11:21:32;;;;;;;3.63;1.17;;;;;;;16.01;56.12;98320.22;5077945;28;20020;-74
2022/10/02 11:24:13;;;;;;;3.58;0.90;;;;;;;16.11;56.48;98319.00;5080496;28;20020;-75
2022/10/02 11:27:16;;;;;;;3.13;0.90;;;;;;;16.15;56.04;98319.94;5081491;28;20064;-74
2022/10/02 11:30:13;;;;;;;1.58;0.85;;;;;;;16.19;55.42;98315.38;5060075;28;20142;-75
2022/10/02 11:33:03;;;;;;;3.53;1.02;;;;;;;16.19;55.54;98309.84;5070402;28;21253;-75
2022/10/02 11:35:47;;;;;;;3.20;0.90;;;;;;;16.15;55.11;98311.66;5077801;28;20035;-75
2022/10/02 11:38:46;;;;;;;2.95;1.00;;;;;;;16.15;54.41;98300.59;5078556;28;20032;-75
2022/10/02 11:41:42;;;;;;;1.92;0.90;;;;;;;16.15;53.88;98308.88;5080625;28;20036;-75
2022/10/02 11:44:23;;;;;;;3.80;0.70;;;;;;;16.14;54.72;98296.19;5082821;28;20035;-75
2022/10/02 11:46:51;;;;;;;3.20;1.00;;;;;;;16.13;54.38;98300.94;5075667;28;20035;-75
2022/10/02 11:49:52;;;;;;;2.80;0.80;;;;;;;16.09;54.62;98299.19;5076048;28;20028;-72
2022/10/02 11:52:27;;;;;;;1.58;0.90;;;;;;;16.09;54.75;98293.66;5063412;28;20040;-72
2022/10/02 11:54:58;;;;;;;38.28;15.05;;;;;;;16.11;55.17;98286.63;5073699;28;20392;-73
2022/10/02 11:57:40;;;;;;;52.08;14.82;;;;;;;16.11;55.17;98285.81;5055722;28;20036;-73
2022/10/02 12:00:33;;;;;;;3.80;1.42;;;;;;;16.11;54.44;98277.50;5078931;28;20385;-73
2022/10/02 12:03:13;;;;;;;3.95;1.10;;;;;;;16.09;54.93;98288.91;5082774;28;20028;-73
2022/10/02 12:05:57;;;;;;;4.47;1.10;;;;;;;16.12;54.38;98281.88;5071895;28;20164;-73
2022/10/02 12:08:50;;;;;;;2.25;0.80;;;;;;;16.12;53.82;98282.72;5076332;28;20032;-73
2022/10/02 12:11:32;;;;;;;2.53;1.00;;;;;;;16.14;54.12;98268.53;5081332;28;20020;-72
2022/10/02 12:14:23;;;;;;;6.05;1.90;;;;;;;16.21;53.72;98260.50;5083288;28;20043;-73
2022/10/02 12:17:24;;;;;;;3.95;1.40;;;;;;;16.31;53.44;98265.63;5083950;28;20024;-73
2022/10/02 12:29:05;;;;;;;5.65;2.00;;;;;;;16.41;51.47;98250.56;5071676;28;20396;-78
2022/10/02 12:31:49;;;;;;;9.15;4.40;;;;;;;16.49;52.15;98240.56;5083619;28;20055;-83
2022/10/02 12:34:49;;;;;;;13.20;6.93;;;;;;;16.58;51.59;98232.16;5070873;28;20043;-76
2022/10/02 12:37:18;;;;;;;4.63;1.33;;;;;;;16.74;51.39;98224.00;5083243;28;20571;-75
2022/10/02 12:39:53;;;;;;;3.55;1.10;;;;;;;16.86;51.52;98226.81;5084373;28;20040;-75
2022/10/02 12:42:39;;;;;;;3.53;1.20;;;;;;;16.96;51.76;98226.38;5085778;28;20103;-75
2022/10/02 12:45:35;;;;;;;3.03;1.42;;;;;;;17.12;51.90;98222.94;5084804;28;20056;-75
2022/10/02 12:48:17;;;;;;;8.48;3.13;;;;;;;17.24;51.94;98234.03;5083923;28;20040;-77
2022/10/02 12:51:11;;;;;;;2.17;1.15;;;;;;;17.26;51.28;98228.94;5078992;28;20127;-77